EDT,Max TemperatureF,Mean TemperatureF,Min TemperatureF,Max Dew PointF,MeanDew PointF,Min DewpointF,Max Humidity, Mean Humidity, Min Humidity, Max Sea Level PressureIn, Mean Sea Level PressureIn, Min Sea Level PressureIn, Max VisibilityMiles, Mean VisibilityMiles, Min VisibilityMiles, Max Wind SpeedMPH, Mean Wind SpeedMPH, Max Gust SpeedMPH,PrecipitationIn, CloudCover, Events, WindDirDegrees
2012-10-1,64,48,33,48,42,34,100,78,42,29.97,29.92,29.87,10,7,0,7,1,,0.00,0,Fog,23
2012-10-2,66,56,46,55,50,45,100,81,52,29.93,29.88,29.85,10,10,10,12,2,17,0.00,5,Rain,25
2012-10-3,69,62,55,59,56,54,100,85,64,30.10,30.00,29.91,10,8,1,14,2,20,0.00,8,Rain,195
2012-10-4,75,65,55,55,53,48,94,71,38,30.09,30.04,29.99,10,10,10,15,6,22,0.00,2,,204
2012-10-5,66,55,44,59,47,39,94,77,54,30.05,30.00,29.94,10,10,7,9,5,17,0.00,6,Rain,244
2012-10-6,50,44,39,43,36,30,100,74,47,30.09,29.98,29.91,10,9,4,14,5,22,0.00,6,,250
2012-10-7,50,42,33,36,32,27,93,70,40,30.13,30.09,30.07,10,10,10,8,5,,0.00,6,,286
2012-10-8,53,40,26,36,31,27,100,71,35,30.21,30.16,30.12,10,9,0,12,4,21,0.00,1,Fog,201
2012-10-9,57,42,28,43,36,28,100,72,44,30.13,30.02,29.84,10,9,2,23,5,29,0.00,0,,189
2012-10-10,51,42,32,43,34,21,93,68,45,30.14,29.91,29.76,10,10,7,16,9,28,0.00,6,Rain,254
2012-10-11,60,44,28,41,31,25,93,63,31,30.17,30.10,29.98,10,10,10,21,6,31,0.00,2,Rain,234
2012-10-12,50,38,26,36,31,25,93,71,40,30.44,30.35,30.16,10,10,10,14,5,20,0.00,2,Rain,355
2012-10-13,57,40,24,55,37,23,100,90,76,30.42,30.18,29.88,10,9,4,16,3,24,0.00,5,Rain,169
2012-10-14,68,62,57,61,59,57,100,86,68,29.88,29.68,29.40,10,8,2,23,12,37,0.00,7,Rain,193
2012-10-15,62,53,44,55,42,37,87,75,66,29.91,29.72,29.40,10,10,7,18,11,28,0.00,8,Rain,277
2012-10-16,55,44,32,45,36,32,100,70,44,29.98,29.90,29.78,10,10,10,13,4,17,0.00,2,,215
2012-10-17,69,60,50,52,47,45,94,68,43,29.79,29.70,29.62,10,10,7,22,10,30,0.00,4,Rain,174
2012-10-18,60,55,50,54,45,32,88,67,36,29.69,29.57,29.45,10,10,7,21,8,32,0.00,6,Rain,168
2012-10-19,57,52,44,48,45,41,100,81,58,29.69,29.62,29.57,10,10,4,15,6,23,0.00,7,Rain,154
2012-10-20,51,46,42,46,43,41,100,90,76,29.88,29.69,29.59,10,9,5,9,3,,0.00,6,Rain,249
2012-10-21,60,48,37,46,40,36,100,80,45,30.10,30.03,29.88,10,8,2,12,3,17,0.00,1,,237
2012-10-22,71,52,33,52,44,34,100,81,46,30.10,30.07,29.99,10,6,0,10,2,,0.00,4,Fog-Rain,179
2012-10-23,64,60,55,61,58,54,100,95,88,30.01,29.97,29.92,10,4,1,6,2,,0.00,8,Rain,163
2012-10-24,73,64,55,59,57,55,100,82,57,30.05,30.01,29.98,10,7,1,12,5,16,0.00,4,Rain,154
2012-10-25,75,65,55,55,53,50,94,66,44,30.01,29.94,29.86,10,10,5,25,8,36,0.00,0,,184
2012-10-26,64,54,44,52,42,36,93,73,62,30.24,30.10,29.86,10,10,3,16,9,23,0.00,6,Rain,313
2012-10-27,48,45,41,37,36,32,81,69,57,30.21,30.17,30.14,10,10,10,15,8,23,0.00,8,,351
2012-10-28,46,44,41,36,32,30,76,65,53,30.19,30.14,30.07,10,10,10,25,11,32,0.00,7,Rain,2
2012-10-29,42,40,37,39,37,36,93,89,76,30.06,29.92,29.62,10,6,2,24,14,36,0.00,8,Rain,349
2012-10-30,44,40,37,43,39,36,100,92,87,29.61,29.43,29.38,7,3,2,24,18,40,0.00,8,Rain-Snow,347
2012-10-31,42,40,39,41,38,36,100,95,87,29.61,29.51,29.41,10,6,2,17,11,25,0.00,8,Rain,305